Time;durP1;ratioP1;P1;durP2;ratioP2;P2;SDS_P1;SDS_P2;PMS_P1;PMS_P2;Temp;Humidity;BMP_temperature;BMP_pressure;BME280_temperature;BME280_humidity;BME280_pressure;Samples;Min_cycle;Max_cycle;Signal;HPM_P1;HPM_P2
2023/12/16 00:04:22;;;;;;;1.63;1.35;;;;;;;;;;10446702;28;20025;-78
2023/12/16 00:09:22;;;;;;;3.03;1.83;;;;;;;;;;10435441;28;20024;-75
2023/12/16 00:14:23;;;;;;;3.25;1.65;;;;;;;;;;10438640;28;20029;-82
2023/12/16 00:19:23;;;;;;;3.47;1.77;;;;;;;;;;10445874;28;20032;-76
2023/12/16 00:24:23;;;;;;;3.35;1.70;;;;;;;;;;10444901;28;20041;-75
2023/12/16 00:29:23;;;;;;;2.17;1.58;;;;;;;;;;10456193;28;20028;-82
2023/12/16 00:34:24;;;;;;;1.50;1.00;;;;;;;;;;10469830;28;20431;-75
2023/12/16 00:39:24;;;;;;;1.67;1.25;;;;;;;;;;10445347;28;20293;-76
2023/12/16 00:44:24;;;;;;;2.53;1.73;;;;;;;;;;10440943;28;20479;-76
2023/12/16 00:49:25;;;;;;;2.97;1.48;;;;;;;;;;10449257;28;20037;-76
2023/12/16 00:54:25;;;;;;;2.30;1.60;;;;;;;;;;10472127;28;20401;-80
2023/12/16 00:59:26;;;;;;;3.33;1.23;;;;;;;;;;10451347;28;20117;-77
2023/12/16 01:04:26;;;;;;;5.22;1.55;;;;;;;;;;10452394;28;20032;-76
2023/12/16 01:09:26;;;;;;;1.95;1.55;;;;;;;;;;10464342;28;20080;-78
2023/12/16 01:14:26;;;;;;;4.35;1.40;;;;;;;;;;10419743;28;20070;-75
2023/12/16 01:19:27;;;;;;;1.48;1.25;;;;;;;;;;10445774;28;20029;-75
2023/12/16 01:24:27;;;;;;;2.15;1.27;;;;;;;;;;10447731;28;20040;-75
2023/12/16 01:29:27;;;;;;;0.63;0.63;;;;;;;;;;10454090;28;20358;-74
2023/12/16 01:34:28;;;;;;;3.38;1.30;;;;;;;;;;10465440;28;20025;-79
2023/12/16 01:39:28;;;;;;;1.73;1.10;;;;;;;;;;10442448;28;20024;-80
2023/12/16 01:44:29;;;;;;;2.55;1.00;;;;;;;;;;10446755;28;20021;-77
2023/12/16 01:49:31;;;;;;;0.77;0.77;;;;;;;;;;10447593;28;20016;-80
2023/12/16 01:54:32;;;;;;;3.08;0.88;;;;;;;;;;10433610;28;20785;-75
2023/12/16 01:59:33;;;;;;;1.95;0.80;;;;;;;;;;10433394;28;20136;-75
2023/12/16 02:04:34;;;;;;;1.47;1.00;;;;;;;;;;10441026;28;20024;-74
2023/12/16 02:09:34;;;;;;;0.90;0.90;;;;;;;;;;10436232;28;20119;-75
2023/12/16 02:14:35;;;;;;;1.42;1.00;;;;;;;;;;10446875;28;20021;-73
2023/12/16 02:19:35;;;;;;;1.38;1.00;;;;;;;;;;10449489;28;20020;-78
2023/12/16 02:24:38;;;;;;;1.52;1.00;;;;;;;;;;10465176;28;20501;-74
2023/12/16 02:29:38;;;;;;;0.85;0.63;;;;;;;;;;10451189;28;20028;-73
2023/12/16 02:34:38;;;;;;;1.17;0.95;;;;;;;;;;10452700;28;20025;-80
2023/12/16 02:39:39;;;;;;;1.20;1.10;;;;;;;;;;10432912;28;20028;-79
2023/12/16 02:44:40;;;;;;;2.58;1.02;;;;;;;;;;10447510;28;20020;-76
2023/12/16 02:49:40;;;;;;;1.40;1.13;;;;;;;;;;10426404;28;20033;-76
2023/12/16 02:54:41;;;;;;;1.75;0.93;;;;;;;;;;10469533;28;20036;-75
2023/12/16 02:59:41;;;;;;;1.30;1.07;;;;;;;;;;10469457;28;20091;-76
2023/12/16 03:04:44;;;;;;;2.63;1.20;;;;;;;;;;10450418;28;20271;-79
2023/12/16 03:09:44;;;;;;;0.93;0.60;;;;;;;;;;10464346;28;20024;-81
2023/12/16 03:14:45;;;;;;;1.75;1.30;;;;;;;;;;10442641;28;20415;-75
2023/12/16 03:19:45;;;;;;;5.40;1.30;;;;;;;;;;10440205;28;20032;-77
2023/12/16 03:24:46;;;;;;;1.60;0.98;;;;;;;;;;10462556;28;20041;-79
2023/12/16 03:29:46;;;;;;;0.70;0.60;;;;;;;;;;10447863;28;20029;-78
2023/12/16 03:34:47;;;;;;;1.70;1.42;;;;;;;;;;10446036;28;20028;-77
2023/12/16 03:39:47;;;;;;;1.23;0.90;;;;;;;;;;10443311;28;20085;-78
2023/12/16 03:44:47;;;;;;;0.98;0.82;;;;;;;;;;10464225;28;20434;-73
2023/12/16 03:49:48;;;;;;;3.33;1.40;;;;;;;;;;10445676;28;20485;-80
2023/12/16 03:54:48;;;;;;;3.83;1.20;;;;;;;;;;10446336;28;20052;-73
2023/12/16 03:59:48;;;;;;;2.35;1.55;;;;;;;;;;10455036;28;20036;-74
2023/12/16 04:04:48;;;;;;;3.08;1.35;;;;;;;;;;10458025;28;20025;-78
2023/12/16 04:09:49;;;;;;;3.05;1.85;;;;;;;;;;10457005;28;20475;-75
2023/12/16 04:14:49;;;;;;;2.25;1.52;;;;;;;;;;10445398;28;20499;-73
2023/12/16 04:19:51;;;;;;;2.95;1.70;;;;;;;;;;10459107;28;20028;-75
2023/12/16 04:24:57;;;;;;;2.03;1.50;;;;;;;;;;10442785;28;20486;-77
2023/12/16 04:29:59;;;;;;;2.10;1.30;;;;;;;;;;10465468;28;20025;-77
2023/12/16 04:34:59;;;;;;;3.58;1.13;;;;;;;;;;10464187;28;20069;-77
2023/12/16 04:39:59;;;;;;;1.55;1.40;;;;;;;;;;10435689;28;20032;-74
2023/12/16 04:44:59;;;;;;;2.33;1.70;;;;;;;;;;10444977;28;20487;-74
2023/12/16 04:50:00;;;;;;;1.63;1.20;;;;;;;;;;10443728;28;20020;-77
2023/12/16 04:55:00;;;;;;;3.50;1.80;;;;;;;;;;10444723;28;20029;-76
2023/12/16 05:00:00;;;;;;;6.80;2.85;;;;;;;;;;10456599;28;20501;-74
2023/12/16 05:05:01;;;;;;;3.95;2.80;;;;;;;;;;10448916;28;20012;-74
2023/12/16 05:10:02;;;;;;;2.00;1.10;;;;;;;;;;10460390;28;20033;-77
2023/12/16 05:15:04;;;;;;;2.03;1.20;;;;;;;;;;10464878;28;20530;-75
2023/12/16 05:20:05;;;;;;;1.17;0.88;;;;;;;;;;10467051;28;20029;-74
2023/12/16 05:25:05;;;;;;;1.63;1.52;;;;;;;;;;10472695;28;20049;-77
2023/12/16 05:30:06;;;;;;;1.77;1.10;;;;;;;;;;10448530;28;20033;-76
2023/12/16 05:35:06;;;;;;;2.22;1.70;;;;;;;;;;10451979;28;20128;-77
2023/12/16 05:40:07;;;;;;;3.45;1.75;;;;;;;;;;10450906;28;20024;-78
2023/12/16 05:45:07;;;;;;;2.08;1.55;;;;;;;;;;10459456;28;20039;-72
2023/12/16 05:50:11;;;;;;;2.15;1.60;;;;;;;;;;10446679;28;20028;-77
2023/12/16 05:55:11;;;;;;;1.48;1.20;;;;;;;;;;10448657;28;20021;-74
2023/12/16 06:00:11;;;;;;;2.50;1.60;;;;;;;;;;10456665;28;20031;-75
2023/12/16 06:05:12;;;;;;;2.30;1.65;;;;;;;;;;10453012;28;20020;-74
2023/12/16 06:10:13;;;;;;;2.28;1.45;;;;;;;;;;10468350;28;20025;-78
2023/12/16 06:15:14;;;;;;;1.08;0.98;;;;;;;;;;10468937;28;20413;-75
2023/12/16 06:20:14;;;;;;;1.90;1.60;;;;;;;;;;10443811;28;20023;-73
2023/12/16 06:25:14;;;;;;;9.18;1.33;;;;;;;;;;10451912;28;20446;-76
2023/12/16 06:30:15;;;;;;;1.63;1.02;;;;;;;;;;10467782;28;20092;-77
2023/12/16 06:35:15;;;;;;;25.00;10.53;;;;;;;;;;10441962;28;20622;-78
2023/12/16 06:40:17;;;;;;;8.25;1.48;;;;;;;;;;10449731;28;20078;-74
2023/12/16 06:45:18;;;;;;;4.70;1.17;;;;;;;;;;10451525;28;20028;-74
2023/12/16 06:50:18;;;;;;;2.38;1.10;;;;;;;;;;10438347;28;20071;-74
2023/12/16 06:55:18;;;;;;;2.78;1.38;;;;;;;;;;10465660;28;20474;-76
2023/12/16 07:00:18;;;;;;;6.35;1.30;;;;;;;;;;10447089;28;20027;-74
2023/12/16 07:05:19;;;;;;;2.37;1.27;;;;;;;;;;10447749;28;20033;-74
2023/12/16 07:10:19;;;;;;;2.70;1.48;;;;;;;;;;10444228;28;20105;-74
2023/12/16 07:15:19;;;;;;;1.92;1.50;;;;;;;;;;10454144;28;20024;-75
2023/12/16 07:20:20;;;;;;;2.28;1.70;;;;;;;;;;10464714;28;20398;-75
2023/12/16 07:25:20;;;;;;;2.70;1.10;;;;;;;;;;10471429;28;20640;-75
2023/12/16 07:30:21;;;;;;;2.72;1.52;;;;;;;;;;10447235;28;20033;-77
2023/12/16 07:35:21;;;;;;;28.95;17.00;;;;;;;;;;10463345;28;20051;-75
2023/12/16 07:40:21;;;;;;;1.15;1.05;;;;;;;;;;10468683;28;20024;-73
2023/12/16 07:45:21;;;;;;;2.50;1.65;;;;;;;;;;10449575;28;20857;-75
2023/12/16 07:50:22;;;;;;;3.15;1.67;;;;;;;;;;10443227;28;20372;-74
2023/12/16 07:55:23;;;;;;;3.17;1.35;;;;;;;;;;10451578;28;20023;-75
2023/12/16 08:00:24;;;;;;;2.28;1.55;;;;;;;;;;10451088;28;20047;-76
2023/12/16 08:05:24;;;;;;;3.10;1.88;;;;;;;;;;10476173;28;20023;-75
2023/12/16 08:10:24;;;;;;;2.43;2.00;;;;;;;;;;10439804;28;20039;-79
2023/12/16 08:15:25;;;;;;;7.70;2.10;;;;;;;;;;10439246;28;20287;-74
2023/12/16 08:20:25;;;;;;;3.97;2.38;;;;;;;;;;10440879;28;20039;-74
2023/12/16 08:25:25;;;;;;;1.85;1.17;;;;;;;;;;10439742;28;20423;-74
2023/12/16 08:30:25;;;;;;;2.67;1.52;;;;;;;;;;10448499;28;20033;-74
2023/12/16 08:35:27;;;;;;;6.82;1.30;;;;;;;;;;10445274;28;20020;-75
2023/12/16 08:40:27;;;;;;;2.33;1.60;;;;;;;;;;10453907;28;20070;-74
2023/12/16 08:45:27;;;;;;;4.00;1.80;;;;;;;;;;10455831;28;20037;-74
2023/12/16 08:50:28;;;;;;;5.05;1.48;;;;;;;;;;10466265;28;20733;-74
2023/12/16 08:55:28;;;;;;;2.53;1.20;;;;;;;;;;10458153;28;20020;-74
2023/12/16 09:00:28;;;;;;;2.58;1.63;;;;;;;;;;10461418;28;20021;-77
2023/12/16 09:05:31;;;;;;;2.27;1.40;;;;;;;;;;10453653;28;20501;-76
2023/12/16 09:10:31;;;;;;;3.15;1.15;;;;;;;;;;10451388;28;20025;-74
2023/12/16 09:15:31;;;;;;;3.88;1.60;;;;;;;;;;10473007;28;20452;-76
2023/12/16 09:20:31;;;;;;;4.47;1.60;;;;;;;;;;10440448;28;20016;-75
2023/12/16 09:25:31;;;;;;;3.25;1.88;;;;;;;;;;10440946;28;20060;-80
2023/12/16 09:30:32;;;;;;;3.90;1.67;;;;;;;;;;10455584;28;20029;-78
2023/12/16 09:35:32;;;;;;;9.15;1.70;;;;;;;;;;10446626;28;20021;-75
2023/12/16 09:40:32;;;;;;;3.85;1.48;;;;;;;;;;10475036;28;20028;-76
2023/12/16 09:45:32;;;;;;;2.45;1.40;;;;;;;;;;10454719;28;20081;-75
2023/12/16 09:50:33;;;;;;;2.20;1.37;;;;;;;;;;10455559;28;20104;-75
2023/12/16 09:55:33;;;;;;;3.03;1.80;;;;;;;;;;10453840;28;20720;-75
2023/12/16 10:00:34;;;;;;;3.77;1.90;;;;;;;;;;10469952;28;20021;-75
2023/12/16 10:05:35;;;;;;;2.28;1.20;;;;;;;;;;10468976;28;20294;-74
2023/12/16 10:10:35;;;;;;;3.05;1.38;;;;;;;;;;10464184;28;20086;-77
2023/12/16 10:15:37;;;;;;;3.73;2.23;;;;;;;;;;10463449;28;20013;-76
2023/12/16 10:20:37;;;;;;;4.28;1.77;;;;;;;;;;10470269;28;20289;-75
2023/12/16 10:25:37;;;;;;;2.87;1.40;;;;;;;;;;10471504;28;20045;-78
2023/12/16 10:30:37;;;;;;;3.67;1.73;;;;;;;;;;10463090;28;20021;-77
2023/12/16 10:35:42;;;;;;;7.20;2.97;;;;;;;;;;10467072;28;20073;-78
2023/12/16 10:40:42;;;;;;;2.17;1.40;;;;;;;;;;10447764;28;20035;-78
2023/12/16 10:45:42;;;;;;;4.30;1.60;;;;;;;;;;10447921;28;20024;-74
2023/12/16 10:50:46;;;;;;;3.78;1.75;;;;;;;;;;10446216;28;20047;-77
2023/12/16 10:55:48;;;;;;;3.40;2.72;;;;;;;;;;10453237;28;20438;-75
2023/12/16 11:00:50;;;;;;;3.20;1.50;;;;;;;;;;10461841;28;20039;-78
2023/12/16 11:05:53;;;;;;;4.13;1.90;;;;;;;;;;10453676;28;20013;-78
2023/12/16 11:11:00;;;;;;;4.20;2.35;;;;;;;;;;10462521;28;20465;-75
2023/12/16 11:16:05;;;;;;;5.53;2.42;;;;;;;;;;10455935;28;20078;-76
2023/12/16 11:21:07;;;;;;;3.72;1.92;;;;;;;;;;10447393;28;20027;-74
2023/12/16 11:26:07;;;;;;;4.10;1.85;;;;;;;;;;10446579;28;20049;-76
2023/12/16 11:31:09;;;;;;;2.38;2.10;;;;;;;;;;10451922;28;20029;-75
2023/12/16 11:36:10;;;;;;;5.32;3.17;;;;;;;;;;10446684;28;20029;-75
2023/12/16 11:41:11;;;;;;;4.00;1.50;;;;;;;;;;10446657;28;20441;-77
2023/12/16 11:46:31;;;;;;;3.33;2.08;;;;;;;;;;10446818;28;20024;-75
2023/12/16 11:51:31;;;;;;;3.10;1.70;;;;;;;;;;10444852;28;20506;-75
2023/12/16 11:56:33;;;;;;;4.40;1.55;;;;;;;;;;10465713;28;20019;-79
2023/12/16 12:01:35;;;;;;;1.90;1.50;;;;;;;;;;10449385;28;20013;-75
2023/12/16 12:06:36;;;;;;;2.28;1.67;;;;;;;;;;10450744;28;20049;-77
2023/12/16 12:11:37;;;;;;;2.70;2.25;;;;;;;;;;10454120;28;20020;-74
2023/12/16 12:16:37;;;;;;;3.45;1.42;;;;;;;;;;10458941;28;20639;-77
2023/12/16 12:21:37;;;;;;;3.30;2.42;;;;;;;;;;10455305;28;20021;-75
2023/12/16 12:26:38;;;;;;;2.70;2.17;;;;;;;;;;10447578;28;20048;-76
2023/12/16 12:31:43;;;;;;;4.18;2.60;;;;;;;;;;10462836;28;20013;-74
2023/12/16 12:36:43;;;;;;;6.85;2.40;;;;;;;;;;10451722;28;20146;-74
2023/12/16 12:41:43;;;;;;;4.82;1.83;;;;;;;;;;10473933;28;20499;-75
2023/12/16 12:46:45;;;;;;;3.67;2.20;;;;;;;;;;10454604;28;20589;-75
2023/12/16 12:51:51;;;;;;;4.03;2.25;;;;;;;;;;10450346;28;20033;-80
2023/12/16 12:56:52;;;;;;;7.90;2.75;;;;;;;;;;10475772;28;20104;-74
2023/12/16 13:01:52;;;;;;;2.70;1.70;;;;;;;;;;10462934;28;20073;-75
2023/12/16 13:06:52;;;;;;;4.17;1.97;;;;;;;;;;10459863;28;20028;-79
2023/12/16 13:11:53;;;;;;;5.30;3.23;;;;;;;;;;10451780;28;20066;-77
2023/12/16 13:16:53;;;;;;;9.70;5.35;;;;;;;;;;10446561;28;20023;-75
2023/12/16 13:21:53;;;;;;;11.40;5.45;;;;;;;;;;10455974;28;20013;-75
2023/12/16 13:26:53;;;;;;;11.13;5.82;;;;;;;;;;10454431;28;20049;-74
2023/12/16 13:31:55;;;;;;;5.63;3.72;;;;;;;;;;10471441;28;20112;-76
2023/12/16 13:36:55;;;;;;;6.43;3.22;;;;;;;;;;10477790;28;20024;-79
2023/12/16 13:41:56;;;;;;;6.97;3.80;;;;;;;;;;10459756;28;20433;-76
2023/12/16 13:46:56;;;;;;;5.40;3.05;;;;;;;;;;10470226;28;20143;-76
2023/12/16 13:51:56;;;;;;;6.50;3.97;;;;;;;;;;10449129;28;20437;-76
2023/12/16 13:56:56;;;;;;;9.50;5.30;;;;;;;;;;10453782;28;20059;-76
2023/12/16 14:01:57;;;;;;;8.50;4.97;;;;;;;;;;10447597;28;20013;-76
2023/12/16 14:06:58;;;;;;;5.97;4.00;;;;;;;;;;10466476;28;20021;-74
2023/12/16 14:11:58;;;;;;;8.80;4.63;;;;;;;;;;10458318;28;20017;-81
2023/12/16 14:16:59;;;;;;;10.32;5.13;;;;;;;;;;10454739;28;20027;-75
2023/12/16 14:21:59;;;;;;;8.38;4.65;;;;;;;;;;10452865;28;20457;-75
2023/12/16 14:27:00;;;;;;;5.93;3.95;;;;;;;;;;10451757;28;20048;-79
2023/12/16 14:32:00;;;;;;;6.65;3.90;;;;;;;;;;10468063;28;20112;-75
2023/12/16 14:37:01;;;;;;;8.60;4.45;;;;;;;;;;10453432;28;20067;-76
2023/12/16 14:42:01;;;;;;;6.70;3.90;;;;;;;;;;10453322;28;20019;-77
2023/12/16 14:47:01;;;;;;;6.20;4.22;;;;;;;;;;10446457;28;20025;-74
2023/12/16 14:52:01;;;;;;;8.43;4.60;;;;;;;;;;10469277;28;20020;-74
2023/12/16 14:57:02;;;;;;;8.32;4.88;;;;;;;;;;10436222;28;20473;-74
2023/12/16 15:02:02;;;;;;;7.88;4.65;;;;;;;;;;10450847;28;20015;-77
2023/12/16 15:07:03;;;;;;;7.65;3.88;;;;;;;;;;10433215;28;20095;-75
2023/12/16 15:12:04;;;;;;;6.93;4.30;;;;;;;;;;10446994;28;20511;-78
2023/12/16 15:17:04;;;;;;;39.83;18.70;;;;;;;;;;10449315;28;20092;-75
2023/12/16 15:22:04;;;;;;;6.50;4.10;;;;;;;;;;10455541;28;20013;-75
2023/12/16 15:27:05;;;;;;;5.97;3.90;;;;;;;;;;10452161;28;20051;-76
2023/12/16 15:32:05;;;;;;;6.47;4.47;;;;;;;;;;10445886;28;20039;-76
2023/12/16 15:37:06;;;;;;;6.53;4.22;;;;;;;;;;10445512;28;20055;-75
2023/12/16 15:42:06;;;;;;;6.53;3.95;;;;;;;;;;10440155;28;20113;-76
2023/12/16 15:47:07;;;;;;;6.20;3.90;;;;;;;;;;10468689;28;20032;-76
2023/12/16 15:52:07;;;;;;;9.05;4.75;;;;;;;;;;10447271;28;20173;-76
2023/12/16 15:57:08;;;;;;;8.98;4.47;;;;;;;;;;10450621;28;20044;-79
2023/12/16 16:02:08;;;;;;;9.38;5.13;;;;;;;;;;10447920;28;20032;-81
2023/12/16 16:07:08;;;;;;;18.13;6.70;;;;;;;;;;10444920;28;20503;-78
2023/12/16 16:12:09;;;;;;;12.30;5.95;;;;;;;;;;10452357;28;20069;-83
2023/12/16 16:17:09;;;;;;;15.43;6.88;;;;;;;;;;10441221;28;20436;-81
2023/12/16 16:22:12;;;;;;;16.23;8.82;;;;;;;;;;10444052;28;20486;-75
2023/12/16 16:27:12;;;;;;;16.38;9.05;;;;;;;;;;10451934;28;20119;-79
2023/12/16 16:32:13;;;;;;;25.10;9.23;;;;;;;;;;10451887;28;20027;-75
2023/12/16 16:37:13;;;;;;;22.10;11.18;;;;;;;;;;10450291;28;20075;-80
2023/12/16 16:42:13;;;;;;;15.07;10.07;;;;;;;;;;10445523;28;20417;-75
2023/12/16 16:47:14;;;;;;;22.00;10.30;;;;;;;;;;10453914;28;20024;-75
2023/12/16 16:52:14;;;;;;;23.23;11.30;;;;;;;;;;10450620;28;20542;-76
2023/12/16 16:57:16;;;;;;;17.40;9.32;;;;;;;;;;10451771;28;20033;-75
2023/12/16 17:02:17;;;;;;;19.08;8.82;;;;;;;;;;10480213;22;20052;-80
2023/12/16 17:07:17;;;;;;;21.58;11.70;;;;;;;;;;10501326;28;20019;-76
2023/12/16 17:12:17;;;;;;;24.75;10.60;;;;;;;;;;10511304;28;20475;-76
2023/12/16 17:17:18;;;;;;;17.37;9.10;;;;;;;;;;10494331;28;20402;-78
2023/12/16 17:22:18;;;;;;;20.75;8.65;;;;;;;;;;10497033;28;20352;-75
2023/12/16 17:27:18;;;;;;;18.02;9.25;;;;;;;;;;10491109;28;20023;-73
2023/12/16 17:32:19;;;;;;;13.48;7.47;;;;;;;;;;10481647;28;20489;-76
2023/12/16 17:37:19;;;;;;;40.05;36.35;;;;;;;;;;10487573;28;20473;-77
2023/12/16 17:42:19;;;;;;;13.75;7.07;;;;;;;;;;10486182;28;20464;-75
2023/12/16 17:47:19;;;;;;;14.73;6.75;;;;;;;;;;10484372;28;20111;-74
2023/12/16 17:52:19;;;;;;;17.38;7.60;;;;;;;;;;10486564;28;20032;-73
2023/12/16 17:57:20;;;;;;;13.70;7.00;;;;;;;;;;10496861;28;20383;-74
2023/12/16 18:02:20;;;;;;;11.18;6.35;;;;;;;;;;10511235;28;20518;-75
2023/12/16 18:07:21;;;;;;;13.80;7.13;;;;;;;;;;10482768;28;20408;-76
2023/12/16 18:12:21;;;;;;;12.57;7.38;;;;;;;;;;10478189;28;20090;-75
2023/12/16 18:17:21;;;;;;;11.00;7.00;;;;;;;;;;10493591;28;20031;-74
2023/12/16 18:22:22;;;;;;;11.32;5.97;;;;;;;;;;10488354;28;20020;-81
2023/12/16 18:27:22;;;;;;;12.52;6.25;;;;;;;;;;10518164;28;20471;-73
2023/12/16 18:32:22;;;;;;;12.70;6.47;;;;;;;;;;10484037;28;20433;-74
2023/12/16 18:37:22;;;;;;;13.57;6.28;;;;;;;;;;10508803;28;20034;-75
2023/12/16 18:42:23;;;;;;;15.10;8.33;;;;;;;;;;10500427;28;20402;-76
2023/12/16 18:47:24;;;;;;;19.80;8.32;;;;;;;;;;10487001;28;20366;-74
2023/12/16 18:52:25;;;;;;;22.40;9.55;;;;;;;;;;10503592;28;20043;-76
2023/12/16 18:57:25;;;;;;;19.88;10.02;;;;;;;;;;10483743;28;20020;-75
2023/12/16 19:02:26;;;;;;;17.88;8.88;;;;;;;;;;10489199;28;20050;-76
2023/12/16 19:07:28;;;;;;;21.17;10.48;;;;;;;;;;10483643;28;20380;-75
2023/12/16 19:12:28;;;;;;;19.67;9.73;;;;;;;;;;10470741;28;20021;-75
2023/12/16 19:17:31;;;;;;;18.40;10.15;;;;;;;;;;10492057;28;20017;-76
2023/12/16 19:22:31;;;;;;;20.15;9.57;;;;;;;;;;10477835;28;20344;-79
2023/12/16 19:27:31;;;;;;;22.05;11.00;;;;;;;;;;10485315;28;20032;-77
2023/12/16 19:32:32;;;;;;;21.53;10.97;;;;;;;;;;10489148;28;20417;-79
2023/12/16 19:37:33;;;;;;;20.67;11.02;;;;;;;;;;10510867;28;20020;-77
2023/12/16 19:42:33;;;;;;;18.90;10.53;;;;;;;;;;10469193;28;20008;-78
2023/12/16 19:47:34;;;;;;;24.35;11.18;;;;;;;;;;10500743;28;20047;-75
2023/12/16 19:52:34;;;;;;;22.30;10.52;;;;;;;;;;10503516;28;20376;-73
2023/12/16 19:57:35;;;;;;;26.23;11.00;;;;;;;;;;10506832;28;20023;-80
2023/12/16 20:02:36;;;;;;;23.40;10.50;;;;;;;;;;10504082;28;20040;-77
2023/12/16 20:07:38;;;;;;;24.38;12.32;;;;;;;;;;10492154;28;20071;-81
2023/12/16 20:12:38;;;;;;;25.45;12.98;;;;;;;;;;10475297;28;20024;-82
2023/12/16 20:17:38;;;;;;;21.58;9.50;;;;;;;;;;10506527;28;20498;-79
2023/12/16 20:22:38;;;;;;;19.80;9.65;;;;;;;;;;10476305;28;20418;-75
2023/12/16 20:27:41;;;;;;;27.40;11.20;;;;;;;;;;10491335;28;20027;-75
2023/12/16 20:32:41;;;;;;;21.67;10.23;;;;;;;;;;10489048;28;20024;-74
2023/12/16 20:37:55;;;;;;;22.67;9.95;;;;;;;;;;10512030;28;20016;-75
2023/12/16 20:42:55;;;;;;;18.65;10.27;;;;;;;;;;10496885;28;20079;-75
2023/12/16 20:47:56;;;;;;;18.23;9.05;;;;;;;;;;10505733;28;20157;-75
2023/12/16 20:52:58;;;;;;;19.38;10.15;;;;;;;;;;10515587;28;20016;-74
2023/12/16 20:57:59;;;;;;;19.08;10.35;;;;;;;;;;10512269;28;20020;-75
2023/12/16 21:02:59;;;;;;;16.65;9.82;;;;;;;;;;10503826;28;20036;-74
2023/12/16 21:07:59;;;;;;;14.95;9.10;;;;;;;;;;10491889;28;20413;-74
2023/12/16 21:13:01;;;;;;;17.97;9.53;;;;;;;;;;10489175;28;20075;-73
2023/12/16 21:18:01;;;;;;;23.42;10.45;;;;;;;;;;10486651;28;20028;-76
2023/12/16 21:23:02;;;;;;;20.25;10.48;;;;;;;;;;10494225;28;20028;-75
2023/12/16 21:28:03;;;;;;;22.92;9.15;;;;;;;;;;10492241;28;20032;-78
2023/12/16 21:33:03;;;;;;;17.17;9.43;;;;;;;;;;10488844;28;20036;-76
2023/12/16 21:38:03;;;;;;;20.63;9.02;;;;;;;;;;10487521;28;20031;-75
2023/12/16 21:43:04;;;;;;;15.55;9.13;;;;;;;;;;10504215;28;20028;-75
2023/12/16 21:48:04;;;;;;;13.65;8.75;;;;;;;;;;10486815;28;20154;-76
2023/12/16 21:53:05;;;;;;;16.73;8.38;;;;;;;;;;10488463;28;20093;-75
2023/12/16 21:58:05;;;;;;;17.55;8.85;;;;;;;;;;10487701;28;20101;-79
2023/12/16 22:03:06;;;;;;;20.05;9.27;;;;;;;;;;10484747;28;20054;-76
2023/12/16 22:08:06;;;;;;;24.65;9.55;;;;;;;;;;10494133;28;20040;-76
2023/12/16 22:13:06;;;;;;;20.67;9.02;;;;;;;;;;10509447;28;20062;-76
2023/12/16 22:18:08;;;;;;;16.30;9.57;;;;;;;;;;10497785;28;20368;-74
2023/12/16 22:23:08;;;;;;;23.92;11.25;;;;;;;;;;10483702;28;20012;-72
2023/12/16 22:28:08;;;;;;;22.35;12.27;;;;;;;;;;10493418;28;20048;-76
2023/12/16 22:33:09;;;;;;;24.42;11.85;;;;;;;;;;10486188;28;20485;-73
2023/12/16 22:38:09;;;;;;;20.33;10.25;;;;;;;;;;10482385;28;20119;-80
2023/12/16 22:43:10;;;;;;;21.85;11.45;;;;;;;;;;10505740;28;20020;-73
2023/12/16 22:48:11;;;;;;;25.83;13.63;;;;;;;;;;10506423;28;20387;-74
2023/12/16 22:53:12;;;;;;;21.38;11.15;;;;;;;;;;10481103;28;20091;-73
2023/12/16 22:58:12;;;;;;;25.65;11.77;;;;;;;;;;10487686;28;20123;-75
2023/12/16 23:03:12;;;;;;;30.23;15.00;;;;;;;;;;10512279;28;20189;-75
2023/12/16 23:08:12;;;;;;;48.47;23.83;;;;;;;;;;10495381;28;20453;-77
2023/12/16 23:13:13;;;;;;;55.60;23.67;;;;;;;;;;10498805;28;20419;-82
2023/12/16 23:18:13;;;;;;;46.88;21.50;;;;;;;;;;10488746;28;20036;-74
2023/12/16 23:23:13;;;;;;;48.47;21.73;;;;;;;;;;10482901;28;20053;-76
2023/12/16 23:28:13;;;;;;;39.70;18.38;;;;;;;;;;10489901;28;20088;-73
2023/12/16 23:33:14;;;;;;;38.67;16.65;;;;;;;;;;10480614;28;20518;-75
2023/12/16 23:38:14;;;;;;;35.97;17.20;;;;;;;;;;10495907;28;20641;-76
2023/12/16 23:43:14;;;;;;;41.00;17.95;;;;;;;;;;10494759;28;20073;-74
2023/12/16 23:48:14;;;;;;;32.05;15.45;;;;;;;;;;10503602;28;20153;-75
2023/12/16 23:53:15;;;;;;;28.63;14.73;;;;;;;;;;10490428;28;20027;-75
2023/12/16 23:58:15;;;;;;;36.28;16.77;;;;;;;;;;10481981;28;20032;-76
